Time;durP1;ratioP1;P1;durP2;ratioP2;P2;SDS_P1;SDS_P2;PMS_P1;PMS_P2;Temp;Humidity;BMP_temperature;BMP_pressure;BME280_temperature;BME280_humidity;BME280_pressure;Samples;Min_cycle;Max_cycle;Signal;HPM_P1;HPM_P2
2022/11/09 00:00:15;;;;;;;2.60;2.50;;;11.80;99.90;;;;;;4960580;28;20842;-52
2022/11/09 00:02:43;;;;;;;2.20;2.10;;;11.80;99.90;;;;;;4967365;28;21026;-51
2022/11/09 00:05:10;;;;;;;2.43;2.30;;;11.80;99.90;;;;;;4973287;28;20473;-52
2022/11/09 00:07:37;;;;;;;5.03;2.90;;;11.80;99.90;;;;;;4975245;28;20519;-52
2022/11/09 00:10:04;;;;;;;2.73;2.00;;;11.80;99.90;;;;;;4965742;28;20470;-52
2022/11/09 00:12:30;;;;;;;3.67;2.30;;;11.80;99.90;;;;;;4978247;28;20527;-53
2022/11/09 00:14:57;;;;;;;2.90;2.70;;;11.80;99.90;;;;;;4989474;28;20782;-53
2022/11/09 00:17:24;;;;;;;5.27;2.60;;;11.80;99.90;;;;;;4989209;28;20457;-52
2022/11/09 00:19:52;;;;;;;2.27;2.17;;;11.80;99.90;;;;;;4979825;28;20498;-50
2022/11/09 00:22:18;;;;;;;2.37;2.20;;;11.80;99.90;;;;;;4980227;28;20528;-53
2022/11/09 00:24:45;;;;;;;2.23;2.13;;;11.80;99.90;;;;;;4988332;28;20492;-51
2022/11/09 00:27:11;;;;;;;2.60;2.40;;;11.80;99.90;;;;;;4974838;28;20513;-50
2022/11/09 00:29:38;;;;;;;2.70;2.50;;;11.80;99.90;;;;;;4974847;28;20805;-50
2022/11/09 00:32:05;;;;;;;2.40;2.20;;;11.80;99.90;;;;;;4973713;28;20465;-51
2022/11/09 00:34:32;;;;;;;2.83;2.37;;;11.80;99.90;;;;;;4970901;28;20465;-51
2022/11/09 00:37:00;;;;;;;4.60;2.60;;;11.80;99.90;;;;;;4973305;28;20596;-50
2022/11/09 00:39:26;;;;;;;2.53;2.33;;;11.80;99.90;;;;;;4974174;28;20889;-50
2022/11/09 00:41:53;;;;;;;2.60;2.40;;;11.80;99.90;;;;;;4971313;28;20481;-52
2022/11/09 00:44:19;;;;;;;3.20;2.60;;;11.80;99.90;;;;;;4970463;28;20904;-50
2022/11/09 00:46:46;;;;;;;2.37;2.17;;;11.80;99.90;;;;;;4970370;28;20465;-51
2022/11/09 00:49:13;;;;;;;3.00;2.33;;;11.80;99.90;;;;;;4972812;28;20465;-51
2022/11/09 00:51:39;;;;;;;2.63;2.40;;;11.80;99.90;;;;;;4973657;28;20466;-52
2022/11/09 00:54:08;;;;;;;2.93;2.73;;;11.80;99.90;;;;;;4964834;28;20887;-51
2022/11/09 00:56:35;;;;;;;6.30;2.80;;;11.80;99.90;;;;;;4968107;28;20943;-51
2022/11/09 00:59:01;;;;;;;3.50;2.90;;;11.80;99.90;;;;;;4973219;28;20520;-51
2022/11/09 01:01:28;;;;;;;3.10;2.77;;;11.80;99.90;;;;;;4965792;28;20461;-51
2022/11/09 01:03:55;;;;;;;6.13;3.10;;;11.70;99.90;;;;;;4972139;28;20489;-52
2022/11/09 01:06:23;;;;;;;2.20;2.10;;;11.70;99.90;;;;;;4973070;28;20518;-51
2022/11/09 01:08:49;;;;;;;3.27;2.80;;;11.70;99.90;;;;;;4973312;28;20469;-51
2022/11/09 01:11:19;;;;;;;3.23;2.90;;;11.70;99.90;;;;;;4969741;28;20461;-51
2022/11/09 01:13:46;;;;;;;2.73;2.53;;;11.70;99.90;;;;;;4967580;28;20535;-51
2022/11/09 01:16:14;;;;;;;5.63;2.60;;;11.70;99.90;;;;;;4968530;28;20980;-51
2022/11/09 01:18:42;;;;;;;2.70;2.40;;;11.70;99.90;;;;;;4969991;28;22059;-51
2022/11/09 01:21:11;;;;;;;2.33;2.17;;;11.80;99.90;;;;;;4971397;28;20528;-53
2022/11/09 01:23:38;;;;;;;3.27;2.37;;;11.80;99.90;;;;;;4972347;28;20512;-52
2022/11/09 01:26:08;;;;;;;2.77;2.33;;;11.80;99.90;;;;;;4973308;28;20477;-52
2022/11/09 01:28:36;;;;;;;4.10;2.10;;;11.80;99.90;;;;;;4968954;28;20515;-52
2022/11/09 01:31:04;;;;;;;2.90;2.60;;;11.80;99.90;;;;;;4968358;28;20986;-53
2022/11/09 01:33:31;;;;;;;2.17;2.07;;;11.90;99.90;;;;;;4971859;28;20532;-52
2022/11/09 01:36:02;;;;;;;2.43;2.00;;;11.90;99.90;;;;;;4969324;28;20458;-52
2022/11/09 01:38:28;;;;;;;2.50;2.27;;;11.90;99.90;;;;;;4971815;28;20461;-53
2022/11/09 01:40:55;;;;;;;3.20;2.90;;;11.80;99.90;;;;;;4970607;28;21100;-52
2022/11/09 01:43:24;;;;;;;7.90;2.83;;;11.80;99.90;;;;;;4968838;28;20540;-52
2022/11/09 01:45:55;;;;;;;11.03;2.70;;;11.80;99.90;;;;;;4968741;28;20491;-53
2022/11/09 01:48:28;;;;;;;2.63;2.43;;;11.90;99.90;;;;;;4966723;28;20528;-52
2022/11/09 01:50:58;;;;;;;2.90;2.63;;;11.90;99.90;;;;;;4971023;28;20516;-53
2022/11/09 01:53:33;;;;;;;2.93;2.70;;;11.90;99.90;;;;;;4972118;28;20532;-53
2022/11/09 01:56:04;;;;;;;2.70;2.37;;;11.90;99.90;;;;;;4971378;28;21030;-53
2022/11/09 01:58:35;;;;;;;2.50;2.30;;;11.90;99.90;;;;;;4971337;28;20465;-52
2022/11/09 02:01:09;;;;;;;5.43;2.50;;;11.90;99.90;;;;;;4971428;28;20981;-53
2022/11/09 02:03:40;;;;;;;2.80;2.60;;;11.90;99.90;;;;;;4968826;28;20489;-52
2022/11/09 02:06:09;;;;;;;5.67;2.77;;;11.90;99.90;;;;;;4968906;28;20462;-52
2022/11/09 02:08:36;;;;;;;7.40;2.77;;;11.90;99.90;;;;;;4971932;28;20480;-52
2022/11/09 02:11:08;;;;;;;4.50;2.37;;;11.80;99.90;;;;;;4971822;28;20465;-53
2022/11/09 02:13:37;;;;;;;2.23;2.03;;;11.80;99.90;;;;;;4968676;28;20536;-52
2022/11/09 02:16:06;;;;;;;2.47;2.27;;;11.70;99.90;;;;;;4962748;28;20548;-50
2022/11/09 02:18:34;;;;;;;2.83;2.60;;;11.70;99.90;;;;;;4973552;28;20461;-50
2022/11/09 02:21:02;;;;;;;3.40;1.83;;;11.70;99.90;;;;;;4970660;28;20461;-50
2022/11/09 02:23:29;;;;;;;2.33;2.23;;;11.70;99.90;;;;;;4963596;28;20489;-52
2022/11/09 02:25:59;;;;;;;2.87;2.47;;;11.50;99.90;;;;;;4969427;28;20462;-53
2022/11/09 02:28:27;;;;;;;4.33;2.03;;;11.50;99.90;;;;;;4966275;28;20498;-53
2022/11/09 02:30:56;;;;;;;2.53;2.33;;;11.40;99.90;;;;;;4966300;28;20461;-52
2022/11/09 02:33:24;;;;;;;2.40;2.03;;;11.40;99.90;;;;;;4963217;28;20513;-52
2022/11/09 02:35:51;;;;;;;4.30;2.67;;;11.30;99.90;;;;;;4970453;28;20520;-52
2022/11/09 02:38:19;;;;;;;3.00;2.73;;;11.30;99.90;;;;;;4972655;28;21156;-52
2022/11/09 02:40:49;;;;;;;2.53;2.43;;;11.30;99.90;;;;;;4968139;28;20462;-52
2022/11/09 02:43:17;;;;;;;2.00;1.90;;;11.30;99.90;;;;;;4969934;28;20544;-52
2022/11/09 02:45:44;;;;;;;4.30;2.43;;;11.20;99.90;;;;;;4969083;28;20466;-52
2022/11/09 02:48:10;;;;;;;3.07;2.87;;;11.20;99.90;;;;;;4970501;28;20955;-52
2022/11/09 02:50:37;;;;;;;3.37;2.67;;;11.20;99.90;;;;;;4961487;28;20850;-53
2022/11/09 02:53:04;;;;;;;2.97;2.77;;;11.20;99.90;;;;;;4962308;28;20477;-53
2022/11/09 02:55:32;;;;;;;2.60;2.40;;;11.20;99.90;;;;;;4969283;28;20488;-52
2022/11/09 02:57:58;;;;;;;2.80;2.57;;;11.20;99.90;;;;;;4968120;28;20594;-54
2022/11/09 03:00:25;;;;;;;2.67;2.47;;;11.20;99.90;;;;;;4962829;28;20466;-53
2022/11/09 03:02:52;;;;;;;4.33;2.33;;;11.20;99.90;;;;;;4966111;28;20576;-52
2022/11/09 03:05:18;;;;;;;2.80;2.33;;;11.20;99.90;;;;;;4968753;28;22519;-53
2022/11/09 03:07:45;;;;;;;4.47;2.53;;;11.20;99.90;;;;;;4969218;28;20490;-53
2022/11/09 03:10:11;;;;;;;2.33;2.20;;;11.20;99.90;;;;;;4969502;28;20461;-53
2022/11/09 03:12:39;;;;;;;3.90;2.30;;;11.20;99.90;;;;;;4970288;28;20478;-51
2022/11/09 03:15:09;;;;;;;3.07;2.87;;;11.20;99.90;;;;;;4971380;28;20516;-50
2022/11/09 03:17:36;;;;;;;2.87;2.67;;;11.20;99.90;;;;;;4961085;28;20469;-57
2022/11/09 03:20:04;;;;;;;2.40;2.20;;;11.30;99.90;;;;;;4967647;28;20458;-50
2022/11/09 03:22:30;;;;;;;6.47;2.90;;;11.30;99.90;;;;;;4970802;28;20964;-50
2022/11/09 03:24:57;;;;;;;2.70;2.50;;;11.30;99.90;;;;;;4968936;28;20473;-51
2022/11/09 03:27:23;;;;;;;10.60;2.70;;;11.40;99.90;;;;;;4968096;28;20604;-51
2022/11/09 03:29:51;;;;;;;3.53;2.70;;;11.30;99.90;;;;;;4967785;28;20540;-53
2022/11/09 03:32:18;;;;;;;2.47;2.27;;;11.30;99.90;;;;;;4976999;28;20489;-50
2022/11/09 03:34:45;;;;;;;3.10;2.80;;;11.30;99.90;;;;;;4987119;28;20473;-50
2022/11/09 03:37:11;;;;;;;4.03;2.00;;;11.30;99.90;;;;;;4985916;28;20550;-51
2022/11/09 03:39:38;;;;;;;2.50;2.30;;;11.40;99.90;;;;;;4987977;28;20462;-51
2022/11/09 03:42:04;;;;;;;7.93;2.50;;;11.40;99.90;;;;;;4971850;28;20518;-51
2022/11/09 03:44:31;;;;;;;2.53;2.33;;;11.40;99.90;;;;;;4967263;28;20461;-50
2022/11/09 03:46:59;;;;;;;2.00;1.80;;;11.50;99.90;;;;;;4969323;28;20461;-50
2022/11/09 03:49:26;;;;;;;2.40;2.20;;;11.60;99.90;;;;;;4969228;28;20466;-50
2022/11/09 03:51:52;;;;;;;2.97;2.13;;;11.60;99.90;;;;;;4966084;28;20827;-51
2022/11/09 03:54:19;;;;;;;2.70;2.23;;;11.60;99.90;;;;;;4963641;28;20462;-50
2022/11/09 03:56:45;;;;;;;3.83;3.60;;;11.70;99.90;;;;;;4966014;28;20466;-51
2022/11/09 03:59:12;;;;;;;2.80;2.20;;;11.80;99.90;;;;;;4966331;28;20501;-50
2022/11/09 04:01:38;;;;;;;4.03;2.83;;;11.80;99.90;;;;;;4967990;28;20986;-51
2022/11/09 04:04:06;;;;;;;3.93;2.57;;;11.80;99.90;;;;;;4968736;28;20497;-51
2022/11/09 04:06:33;;;;;;;4.23;4.03;;;11.80;99.90;;;;;;4969848;28;20517;-51
2022/11/09 04:09:00;;;;;;;2.53;2.30;;;11.80;99.90;;;;;;4968856;28;20469;-51
2022/11/09 04:11:26;;;;;;;1.90;1.80;;;11.90;99.90;;;;;;4964573;28;20525;-51
2022/11/09 04:13:53;;;;;;;2.70;2.50;;;11.90;99.90;;;;;;4970569;28;20544;-50
2022/11/09 04:16:19;;;;;;;9.67;2.70;;;11.90;99.90;;;;;;4966255;28;20991;-51
2022/11/09 04:18:46;;;;;;;2.80;2.60;;;11.90;99.90;;;;;;4969180;28;20461;-51
2022/11/09 04:21:14;;;;;;;2.80;2.60;;;11.90;99.90;;;;;;4968588;28;20540;-50
2022/11/09 04:23:40;;;;;;;5.00;2.20;;;11.90;99.90;;;;;;4969834;28;20489;-50
2022/11/09 04:26:07;;;;;;;9.30;2.60;;;11.90;99.90;;;;;;4962108;28;20559;-50
2022/11/09 04:28:34;;;;;;;2.97;2.60;;;11.90;99.90;;;;;;4961942;28;20484;-50
2022/11/09 04:31:01;;;;;;;1.80;1.70;;;11.90;99.90;;;;;;4965680;28;20560;-50
2022/11/09 04:33:28;;;;;;;3.67;2.23;;;11.90;99.90;;;;;;4964252;28;20485;-50
2022/11/09 04:35:55;;;;;;;3.67;2.90;;;11.90;99.90;;;;;;4968501;28;20524;-50
2022/11/09 04:38:23;;;;;;;3.00;2.23;;;11.90;99.90;;;;;;4970432;28;20485;-50
2022/11/09 04:40:49;;;;;;;2.70;2.50;;;11.90;99.90;;;;;;4968286;28;20466;-51
2022/11/09 04:43:16;;;;;;;3.97;2.70;;;11.90;99.90;;;;;;4967466;28;20611;-55
2022/11/09 04:45:43;;;;;;;2.20;2.10;;;11.90;99.90;;;;;;4966439;28;20462;-51
2022/11/09 04:48:10;;;;;;;4.53;3.20;;;11.90;99.90;;;;;;4969774;28;20535;-51
2022/11/09 04:50:37;;;;;;;2.90;2.67;;;11.90;99.90;;;;;;4969121;28;20878;-57
2022/11/09 04:53:09;;;;;;;10.70;2.40;;;11.90;99.90;;;;;;4972558;28;20504;-50
2022/11/09 04:55:37;;;;;;;5.63;2.97;;;11.90;99.90;;;;;;4965641;28;20893;-52
2022/11/09 04:58:04;;;;;;;3.20;2.80;;;11.90;99.90;;;;;;4971989;28;21010;-51
2022/11/09 05:00:31;;;;;;;2.77;2.57;;;11.80;99.50;;;;;;4968805;28;20947;-51
2022/11/09 05:03:00;;;;;;;5.30;2.60;;;11.80;99.10;;;;;;4973680;28;20540;-51
2022/11/09 05:05:28;;;;;;;5.13;3.00;;;11.80;99.70;;;;;;4973464;28;20461;-51
2022/11/09 05:07:54;;;;;;;3.37;2.77;;;11.80;99.90;;;;;;4970665;28;20536;-50
2022/11/09 05:10:21;;;;;;;3.17;2.97;;;11.90;99.60;;;;;;4983685;28;20481;-55
2022/11/09 05:12:49;;;;;;;3.43;2.60;;;11.80;98.80;;;;;;4973242;28;20571;-51
2022/11/09 05:15:15;;;;;;;2.70;2.60;;;11.80;98.20;;;;;;4967530;28;20501;-50
2022/11/09 05:17:42;;;;;;;5.87;2.20;;;11.80;97.60;;;;;;4969049;28;20528;-52
2022/11/09 05:20:10;;;;;;;3.07;2.50;;;11.80;96.60;;;;;;4970036;28;20497;-51
2022/11/09 05:25:24;;;;;;;2.70;2.47;;;11.80;94.00;;;;;;4966432;28;20523;-53
2022/11/09 05:27:52;;;;;;;2.30;2.20;;;11.80;94.40;;;;;;4972617;28;20547;-51
2022/11/09 05:30:19;;;;;;;3.07;2.87;;;11.80;93.10;;;;;;4968916;28;20461;-52
2022/11/09 05:32:45;;;;;;;2.63;2.40;;;11.80;89.10;;;;;;4967507;28;20859;-50
2022/11/09 05:35:12;;;;;;;8.73;2.20;;;11.80;89.10;;;;;;4968755;28;20842;-51
2022/11/09 05:37:39;;;;;;;3.73;2.60;;;11.80;92.20;;;;;;4970114;28;20494;-52
2022/11/09 05:40:08;;;;;;;3.00;2.80;;;11.80;90.30;;;;;;4968587;28;20515;-50
2022/11/09 05:42:34;;;;;;;2.57;2.47;;;11.80;90.60;;;;;;4994553;23;21021;-55
2022/11/09 05:45:02;;;;;;;2.47;2.27;;;11.90;89.80;;;;;;4983631;28;20528;-55
2022/11/09 05:47:29;;;;;;;5.43;2.73;;;11.80;89.10;;;;;;4986419;28;20460;-55
2022/11/09 05:49:55;;;;;;;2.70;2.50;;;11.80;88.60;;;;;;4985116;28;20489;-56
2022/11/09 05:52:22;;;;;;;4.93;2.60;;;11.80;86.30;;;;;;4989463;28;20551;-56
2022/11/09 05:54:48;;;;;;;4.73;2.87;;;11.90;88.80;;;;;;4987310;28;20492;-56
2022/11/09 05:57:15;;;;;;;3.27;2.87;;;11.90;89.90;;;;;;4992235;28;20519;-54
2022/11/09 05:59:42;;;;;;;3.17;2.97;;;11.90;88.40;;;;;;4987504;28;20461;-56
2022/11/09 06:02:09;;;;;;;2.50;2.30;;;11.90;88.10;;;;;;4990511;28;20594;-54
2022/11/09 06:04:36;;;;;;;3.73;3.40;;;12.00;89.90;;;;;;4983652;28;20521;-54
2022/11/09 06:07:03;;;;;;;3.20;3.00;;;12.00;89.50;;;;;;4984395;28;20473;-56
2022/11/09 06:09:29;;;;;;;4.87;3.10;;;12.10;90.60;;;;;;4989153;28;20456;-55
2022/11/09 06:11:56;;;;;;;3.10;2.57;;;12.00;89.40;;;;;;4990692;28;20512;-57
2022/11/09 06:14:22;;;;;;;3.17;2.90;;;12.10;90.40;;;;;;4986583;28;20462;-56
2022/11/09 06:16:49;;;;;;;4.53;3.00;;;12.10;90.40;;;;;;4987613;28;21013;-55
2022/11/09 06:19:17;;;;;;;4.07;3.30;;;12.10;89.30;;;;;;4979828;28;20557;-54
2022/11/09 06:21:44;;;;;;;3.00;2.40;;;12.10;88.40;;;;;;4985623;28;20460;-57
2022/11/09 06:24:10;;;;;;;4.87;2.93;;;12.10;90.00;;;;;;4991488;28;20507;-55
2022/11/09 06:26:37;;;;;;;5.17;3.13;;;12.20;91.30;;;;;;4989795;28;20464;-55
2022/11/09 06:29:04;;;;;;;3.00;2.50;;;12.20;91.40;;;;;;4989031;28;20506;-56
2022/11/09 06:31:31;;;;;;;3.03;2.70;;;12.20;90.70;;;;;;4989890;28;20507;-55
2022/11/09 06:33:58;;;;;;;3.13;2.50;;;12.20;90.90;;;;;;4993033;28;20978;-55
2022/11/09 06:36:25;;;;;;;3.30;2.63;;;12.20;91.90;;;;;;4988749;28;20837;-54
2022/11/09 06:38:52;;;;;;;9.57;2.93;;;12.20;92.50;;;;;;4989990;28;20532;-55
2022/11/09 06:41:19;;;;;;;4.50;3.17;;;12.20;93.70;;;;;;4990211;28;20472;-56
2022/11/09 06:43:46;;;;;;;2.80;2.60;;;12.30;93.60;;;;;;4979561;28;20524;-56
2022/11/09 06:46:16;;;;;;;3.27;3.00;;;12.40;95.30;;;;;;4974178;28;20468;-55
2022/11/09 06:48:43;;;;;;;2.70;2.50;;;12.40;95.40;;;;;;4989950;28;20584;-55
2022/11/09 06:51:10;;;;;;;2.73;2.40;;;12.40;95.00;;;;;;4980165;28;20484;-55
2022/11/09 06:53:40;;;;;;;2.73;2.50;;;12.40;93.30;;;;;;4988883;28;20977;-50
2022/11/09 06:56:08;;;;;;;2.63;2.43;;;12.40;91.10;;;;;;4981094;28;20495;-50
2022/11/09 06:58:35;;;;;;;3.57;2.40;;;12.40;86.90;;;;;;4981566;28;20473;-51
2022/11/09 07:01:07;;;;;;;4.73;2.50;;;12.40;84.80;;;;;;4984179;28;22444;-51
2022/11/09 07:03:34;;;;;;;3.10;2.80;;;12.40;73.20;;;;;;4981470;28;20488;-51
2022/11/09 07:06:05;;;;;;;4.67;3.10;;;12.30;59.60;;;;;;4983870;28;20452;-55
2022/11/09 07:08:33;;;;;;;5.77;3.37;;;12.20;48.60;;;;;;4990634;28;20866;-55
2022/11/09 07:11:05;;;;;;;6.87;3.80;;;12.10;36.40;;;;;;4986984;28;20464;-54
2022/11/09 07:13:31;;;;;;;3.70;2.77;;;12.10;26.00;;;;;;4989374;28;20951;-56
2022/11/09 07:15:58;;;;;;;3.60;3.30;;;12.00;75.30;;;;;;4982973;28;20492;-56
2022/11/09 07:18:25;;;;;;;7.43;2.97;;;11.90;99.90;;;;;;4989294;28;20492;-54
2022/11/09 07:20:51;;;;;;;3.40;3.08;;;11.80;99.90;;;;;;4987330;28;21009;-54
2022/11/09 07:23:18;;;;;;;3.30;3.10;;;11.70;99.90;;;;;;4985722;28;20268;-55
2022/11/09 07:25:45;;;;;;;2.90;2.70;;;11.70;99.90;;;;;;4985035;28;20499;-54
2022/11/09 07:28:14;;;;;;;4.57;3.30;;;11.50;99.90;;;;;;4990401;28;20880;-54
2022/11/09 07:30:41;;;;;;;4.90;3.10;;;11.50;99.90;;;;;;4980108;28;20469;-54
2022/11/09 07:33:13;;;;;;;3.13;2.70;;;11.50;99.90;;;;;;4985929;28;21060;-53
2022/11/09 07:35:40;;;;;;;4.17;2.97;;;11.50;99.90;;;;;;4988939;28;20519;-55
2022/11/09 07:38:07;;;;;;;3.60;3.30;;;11.40;99.90;;;;;;4986399;28;20469;-55
2022/11/09 07:40:34;;;;;;;3.30;3.00;;;11.40;99.90;;;;;;4984715;28;20491;-50
2022/11/09 07:43:01;;;;;;;3.13;2.93;;;11.30;99.90;;;;;;4981292;28;20515;-51
2022/11/09 07:45:30;;;;;;;3.87;3.10;;;11.30;99.90;;;;;;4982910;28;20538;-51
2022/11/09 07:47:58;;;;;;;4.47;3.00;;;11.30;99.90;;;;;;4984891;28;20502;-52
2022/11/09 07:50:25;;;;;;;3.53;3.07;;;11.30;99.90;;;;;;4989175;28;20511;-51
2022/11/09 07:52:51;;;;;;;7.50;2.93;;;11.30;99.90;;;;;;4977063;28;20535;-52
2022/11/09 07:55:18;;;;;;;2.70;2.50;;;11.30;99.90;;;;;;4983077;28;20471;-51
2022/11/09 07:57:46;;;;;;;4.30;3.10;;;11.40;99.90;;;;;;4979840;28;20550;-51
2022/11/09 08:00:14;;;;;;;7.60;3.07;;;11.40;99.90;;;;;;4977609;28;21025;-51
2022/11/09 08:02:42;;;;;;;3.40;2.17;;;11.40;99.90;;;;;;4987532;28;20476;-51
2022/11/09 08:05:09;;;;;;;9.63;3.03;;;11.50;99.90;;;;;;4980665;28;20486;-51
2022/11/09 08:07:36;;;;;;;5.57;2.87;;;11.50;99.90;;;;;;4981628;28;20523;-51
2022/11/09 08:10:02;;;;;;;4.00;3.17;;;11.60;99.90;;;;;;4985257;28;20493;-51
2022/11/09 08:12:29;;;;;;;3.97;3.27;;;11.60;99.90;;;;;;4988694;28;20476;-51
2022/11/09 08:14:56;;;;;;;4.03;2.97;;;11.60;99.90;;;;;;4983899;28;20452;-51
2022/11/09 08:17:23;;;;;;;4.10;3.50;;;11.60;99.90;;;;;;4984300;28;20468;-52
2022/11/09 08:19:51;;;;;;;2.77;2.57;;;11.60;99.90;;;;;;4984953;28;20488;-51
2022/11/09 08:22:17;;;;;;;2.80;2.60;;;11.60;99.90;;;;;;4984188;28;20543;-51
2022/11/09 08:24:44;;;;;;;5.60;2.93;;;11.70;99.90;;;;;;4985064;28;20564;-51
2022/11/09 08:27:11;;;;;;;3.43;3.23;;;11.70;99.90;;;;;;4985510;28;20963;-51
2022/11/09 08:29:37;;;;;;;3.57;3.00;;;11.60;99.90;;;;;;4974500;28;20840;-51
2022/11/09 08:32:04;;;;;;;2.97;2.70;;;11.60;99.90;;;;;;4990338;28;21020;-51
2022/11/09 08:34:31;;;;;;;4.63;2.57;;;11.60;99.90;;;;;;4989230;28;20460;-51
2022/11/09 08:37:01;;;;;;;5.93;3.10;;;11.60;99.90;;;;;;4993374;28;20487;-50
2022/11/09 08:39:27;;;;;;;3.17;2.70;;;11.70;99.90;;;;;;4985655;28;20538;-50
2022/11/09 08:41:54;;;;;;;3.87;3.17;;;11.70;99.90;;;;;;4983300;28;20496;-50
2022/11/09 08:44:21;;;;;;;5.13;2.80;;;11.70;99.90;;;;;;4987566;28;20492;-51
2022/11/09 08:46:48;;;;;;;3.50;3.10;;;11.70;99.90;;;;;;4983816;28;20950;-50
2022/11/09 08:49:15;;;;;;;3.60;3.00;;;11.80;99.90;;;;;;4986175;28;20465;-50
2022/11/09 08:51:42;;;;;;;3.30;3.00;;;11.80;99.90;;;;;;4982660;28;20463;-49
2022/11/09 08:54:12;;;;;;;3.17;2.90;;;11.80;99.90;;;;;;4985812;28;20484;-50
2022/11/09 08:56:39;;;;;;;9.53;3.47;;;11.80;99.90;;;;;;4985437;28;20500;-49
2022/11/09 08:59:06;;;;;;;8.40;2.60;;;11.80;99.90;;;;;;4985567;28;20487;-50
2022/11/09 09:01:32;;;;;;;13.93;3.50;;;11.90;99.90;;;;;;4989736;28;20464;-51
2022/11/09 09:03:59;;;;;;;5.73;3.27;;;11.90;99.90;;;;;;4987028;28;20562;-50
2022/11/09 09:06:25;;;;;;;6.60;3.33;;;11.90;99.90;;;;;;4975474;28;20499;-51
2022/11/09 09:08:52;;;;;;;8.70;3.10;;;11.90;99.90;;;;;;4983076;28;20463;-51
2022/11/09 09:11:20;;;;;;;3.30;3.00;;;11.90;99.90;;;;;;4982479;28;20539;-50
2022/11/09 09:13:46;;;;;;;8.03;3.33;;;11.90;99.90;;;;;;4991781;28;20488;-50
2022/11/09 09:16:15;;;;;;;4.50;3.40;;;11.90;99.90;;;;;;4973063;28;24693;-51
2022/11/09 09:18:42;;;;;;;2.63;2.40;;;12.00;99.90;;;;;;4986155;28;20496;-52
2022/11/09 09:21:09;;;;;;;3.73;3.43;;;12.00;99.90;;;;;;4980655;28;20522;-52
2022/11/09 09:23:36;;;;;;;12.93;3.40;;;12.10;99.90;;;;;;4988741;28;20488;-51
2022/11/09 09:26:03;;;;;;;3.40;3.10;;;12.10;99.90;;;;;;4988639;28;20523;-52
2022/11/09 09:28:31;;;;;;;4.23;3.30;;;12.20;99.90;;;;;;4989991;28;21154;-51
2022/11/09 09:30:59;;;;;;;6.37;3.47;;;12.30;99.90;;;;;;4989576;28;20488;-52
2022/11/09 09:33:26;;;;;;;6.33;3.23;;;12.40;99.90;;;;;;4976948;28;20484;-51
2022/11/09 09:35:55;;;;;;;4.37;3.20;;;12.50;99.90;;;;;;4978007;28;20460;-51
2022/11/09 09:38:21;;;;;;;4.23;3.83;;;12.60;99.90;;;;;;4982066;28;21030;-51
2022/11/09 09:40:57;;;;;;;3.30;2.70;;;12.70;99.90;;;;;;4989563;28;21439;-50
2022/11/09 09:43:32;;;;;;;3.70;3.20;;;12.90;99.90;;;;;;4990883;28;20492;-50
2022/11/09 09:46:02;;;;;;;7.97;3.00;;;13.40;99.90;;;;;;4982308;28;20520;-51
2022/11/09 09:48:36;;;;;;;4.17;3.43;;;15.00;30.30;;;;;;4983404;28;20548;-50
2022/11/09 09:51:10;;;;;;;3.13;2.90;;;15.50;95.60;;;;;;4981526;28;20467;-51
2022/11/09 09:53:42;;;;;;;3.47;3.17;;;16.30;99.90;;;;;;4987565;28;20574;-51
2022/11/09 09:56:13;;;;;;;8.67;2.77;;;16.30;99.90;;;;;;4980233;28;20586;-51
2022/11/09 09:58:45;;;;;;;3.70;2.73;;;15.50;99.90;;;;;;4989211;28;20468;-50
2022/11/09 10:01:16;;;;;;;6.00;3.20;;;15.20;92.60;;;;;;4980945;28;20471;-51
2022/11/09 10:03:42;;;;;;;2.43;2.30;;;15.20;75.80;;;;;;4986944;28;20476;-50
2022/11/09 10:06:36;;;;;;;2.80;2.60;;;15.00;75.60;;;;;;4987531;28;21060;-51
2022/11/09 10:09:13;;;;;;;9.03;4.17;;;15.00;70.50;;;;;;4988806;28;20476;-51
2022/11/09 10:11:51;;;;;;;4.90;2.50;;;15.00;71.40;;;;;;4979465;28;20488;-52
2022/11/09 10:14:37;;;;;;;4.10;3.07;;;14.60;64.00;;;;;;4979375;28;20616;-52
2022/11/09 10:17:13;;;;;;;3.00;2.80;;;14.40;44.50;;;;;;4979973;28;20497;-51
2022/11/09 10:19:53;;;;;;;4.70;2.70;;;14.20;36.70;;;;;;4976760;28;20500;-51
2022/11/09 10:22:24;;;;;;;7.87;3.43;;;14.20;31.20;;;;;;4983036;28;20566;-51
2022/11/09 10:24:58;;;;;;;3.60;3.17;;;14.40;41.10;;;;;;4978768;28;20476;-51
2022/11/09 10:27:33;;;;;;;2.80;2.60;;;14.70;44.90;;;;;;4979303;28;20465;-51
2022/11/09 10:30:02;;;;;;;4.50;2.77;;;14.70;51.60;;;;;;4985149;28;21012;-51
2022/11/09 10:32:31;;;;;;;3.37;3.07;;;15.00;57.80;;;;;;4985569;28;20564;-51
2022/11/09 10:35:04;;;;;;;3.20;2.90;;;14.60;47.20;;;;;;4978983;28;20488;-51
2022/11/09 10:37:36;;;;;;;4.40;3.13;;;14.10;31.70;;;;;;4979265;28;20832;-51
2022/11/09 10:40:11;;;;;;;5.40;2.63;;;14.00;20.80;;;;;;4978635;28;20529;-51
2022/11/09 10:42:37;;;;;;;2.70;2.50;;;13.80;83.70;;;;;;4973980;28;20595;-51
2022/11/09 10:45:15;;;;;;;3.47;2.97;;;13.90;88.10;;;;;;4980764;28;20586;-53
2022/11/09 10:47:47;;;;;;;3.60;3.07;;;13.80;97.90;;;;;;4985048;28;20465;-51
2022/11/09 10:50:22;;;;;;;3.10;2.90;;;13.90;99.90;;;;;;4986064;28;20468;-50
2022/11/09 10:52:49;;;;;;;3.27;2.13;;;14.00;99.90;;;;;;4976342;28;20894;-51
2022/11/09 10:55:25;;;;;;;4.07;2.47;;;15.00;46.30;;;;;;4980488;28;20470;-52
2022/11/09 10:57:59;;;;;;;5.10;3.20;;;14.70;52.40;;;;;;4978226;28;20464;-52
2022/11/09 11:00:27;;;;;;;3.40;3.17;;;14.60;32.90;;;;;;4981736;28;20971;-51
2022/11/09 11:02:55;;;;;;;6.60;2.70;;;14.60;31.70;;;;;;4977397;28;20611;-51
2022/11/09 11:05:25;;;;;;;2.93;2.63;;;14.50;36.50;;;;;;4978987;28;20480;-51
2022/11/09 11:07:52;;;;;;;3.03;2.60;;;15.20;59.90;;;;;;4983187;28;20468;-51
2022/11/09 11:10:19;;;;;;;6.07;2.90;;;15.30;70.80;;;;;;4982807;28;20615;-51
2022/11/09 11:12:50;;;;;;;8.43;2.60;;;15.10;60.30;;;;;;4983620;28;21016;-51
2022/11/09 11:15:23;;;;;;;8.97;3.00;;;14.60;45.10;;;;;;4988809;28;20540;-51
2022/11/09 11:17:59;;;;;;;2.97;2.70;;;14.50;34.90;;;;;;4987546;28;20468;-51
2022/11/09 11:20:29;;;;;;;2.90;2.70;;;14.30;28.60;;;;;;4979512;28;20464;-51
2022/11/09 11:23:12;;;;;;;2.73;2.43;;;14.30;25.90;;;;;;4984408;28;20540;-51
2022/11/09 11:25:57;;;;;;;3.60;2.60;;;14.40;25.30;;;;;;4987288;28;20579;-50
2022/11/09 11:28:31;;;;;;;8.03;2.90;;;14.30;26.90;;;;;;4977258;28;20458;-51
2022/11/09 11:30:58;;;;;;;3.83;2.77;;;14.30;23.10;;;;;;4976262;28;20456;-51
2022/11/09 11:33:28;;;;;;;2.60;2.40;;;14.20;28.10;;;;;;4986448;28;21048;-51
2022/11/09 11:35:58;;;;;;;5.77;2.27;;;14.20;21.40;;;;;;4978048;28;20475;-51
2022/11/09 11:38:30;;;;;;;6.80;2.67;;;14.20;75.90;;;;;;4983415;28;20488;-51
2022/11/09 11:41:03;;;;;;;6.40;2.50;;;14.20;79.70;;;;;;4987523;28;20839;-51
2022/11/09 11:43:41;;;;;;;2.77;2.60;;;14.20;75.10;;;;;;5006944;23;20500;-52
2022/11/09 11:46:18;;;;;;;3.93;2.53;;;14.30;92.70;;;;;;4994582;28;20518;-52
2022/11/09 11:49:09;;;;;;;2.63;2.43;;;14.30;98.60;;;;;;5005504;28;20459;-52
2022/11/09 11:51:43;;;;;;;2.80;2.60;;;14.30;97.60;;;;;;5002097;28;20459;-52
2022/11/09 11:54:19;;;;;;;2.67;2.47;;;14.20;73.00;;;;;;4981395;28;20507;-52
2022/11/09 11:56:48;;;;;;;2.67;2.47;;;14.30;80.60;;;;;;4983447;28;20955;-52
2022/11/09 11:59:40;;;;;;;4.60;4.20;;;14.40;83.50;;;;;;4992943;28;20829;-52
2022/11/09 12:02:33;;;;;;;2.50;2.30;;;14.40;21.10;;;;;;4987334;28;20496;-52
2022/11/09 12:05:38;;;;;;;2.33;2.23;;;14.50;23.50;;;;;;4988818;28;20507;-52
2022/11/09 12:08:13;;;;;;;2.40;2.30;;;14.60;26.70;;;;;;4982952;28;20496;-53
2022/11/09 12:10:49;;;;;;;2.80;2.60;;;15.00;41.70;;;;;;4984907;28;20541;-52
2022/11/09 12:13:33;;;;;;;3.60;2.40;;;15.00;42.00;;;;;;4983991;28;20515;-52
2022/11/09 12:16:04;;;;;;;2.27;2.00;;;15.50;67.10;;;;;;4985621;28;20539;-52
2022/11/09 12:18:41;;;;;;;4.73;2.23;;;15.40;62.60;;;;;;4988104;28;20489;-52
2022/11/09 12:21:17;;;;;;;5.17;2.57;;;15.50;62.40;;;;;;4984833;28;20460;-53
2022/11/09 12:24:01;;;;;;;3.07;2.73;;;16.20;71.60;;;;;;4987490;28;21211;-52
2022/11/09 12:26:51;;;;;;;2.03;1.93;;;16.10;93.10;;;;;;4982691;28;20905;-53
2022/11/09 12:29:20;;;;;;;2.73;2.07;;;16.20;99.90;;;;;;4979542;28;20471;-53
2022/11/09 12:31:55;;;;;;;1.90;1.80;;;16.00;95.30;;;;;;4987517;28;21019;-53
2022/11/09 12:34:28;;;;;;;1.60;1.50;;;15.90;92.80;;;;;;4988936;28;20541;-52
2022/11/09 12:37:01;;;;;;;1.50;1.40;;;15.80;90.50;;;;;;4988919;28;20839;-53
2022/11/09 12:39:31;;;;;;;2.20;2.00;;;15.70;88.20;;;;;;4981371;28;20548;-53
2022/11/09 12:42:03;;;;;;;3.17;1.63;;;15.60;80.50;;;;;;4990113;28;20574;-52
2022/11/09 12:44:34;;;;;;;2.53;1.80;;;15.60;82.70;;;;;;4984079;28;22007;-53
2022/11/09 12:47:04;;;;;;;3.20;1.73;;;15.60;80.50;;;;;;4977246;28;20575;-53
2022/11/09 12:49:35;;;;;;;2.90;2.50;;;15.50;76.50;;;;;;4986080;28;20550;-52
2022/11/09 12:52:04;;;;;;;2.00;1.90;;;15.50;74.20;;;;;;4982125;28;20588;-51
2022/11/09 12:54:31;;;;;;;2.00;1.60;;;15.50;73.20;;;;;;4980402;28;20484;-52
2022/11/09 12:57:02;;;;;;;1.93;1.83;;;15.50;70.00;;;;;;4977089;28;20975;-52